sensor_id;sensor_type;location;lat;lon;timestamp;P1;durP1;ratioP1;P2;durP2;ratioP2
1991;SDS011;997;48.448;8.924;2023-01-29T05:42:31;8.43;;;7.73;;
1991;SDS011;997;48.448;8.924;2023-01-29T05:44:57;9.30;;;8.40;;
1991;SDS011;997;48.448;8.924;2023-01-29T05:47:22;7.90;;;7.10;;
1991;SDS011;997;48.448;8.924;2023-01-29T05:49:48;7.93;;;7.23;;
1991;SDS011;997;48.448;8.924;2023-01-29T05:52:13;8.07;;;7.40;;
1991;SDS011;997;48.448;8.924;2023-01-29T06:07:36;8.80;;;8.00;;
1991;SDS011;997;48.448;8.924;2023-01-29T06:10:04;8.27;;;7.57;;
1991;SDS011;997;48.448;8.924;2023-01-29T06:12:30;7.30;;;6.70;;
1991;SDS011;997;48.448;8.924;2023-01-29T06:14:56;8.90;;;8.03;;
1991;SDS011;997;48.448;8.924;2023-01-29T06:17:21;8.60;;;7.73;;
1991;SDS011;997;48.448;8.924;2023-01-29T06:19:47;8.70;;;8.00;;
1991;SDS011;997;48.448;8.924;2023-01-29T06:22:13;6.40;;;5.80;;
1991;SDS011;997;48.448;8.924;2023-01-29T06:24:38;8.20;;;7.33;;
1991;SDS011;997;48.448;8.924;2023-01-29T06:27:04;7.67;;;6.97;;
1991;SDS011;997;48.448;8.924;2023-01-29T06:29:30;7.33;;;6.60;;
1991;SDS011;997;48.448;8.924;2023-01-29T06:31:56;8.97;;;7.50;;
1991;SDS011;997;48.448;8.924;2023-01-29T06:34:21;7.93;;;6.93;;
1991;SDS011;997;48.448;8.924;2023-01-29T08:49:02;5.60;;;5.20;;
1991;SDS011;997;48.448;8.924;2023-01-29T13:16:29;6.67;;;6.07;;
1991;SDS011;997;48.448;8.924;2023-01-29T13:19:12;4.77;;;4.37;;
1991;SDS011;997;48.448;8.924;2023-01-29T13:22:00;5.50;;;4.53;;
1991;SDS011;997;48.448;8.924;2023-01-29T13:24:34;5.67;;;5.20;;
1991;SDS011;997;48.448;8.924;2023-01-29T13:27:04;6.17;;;5.67;;
1991;SDS011;997;48.448;8.924;2023-01-29T13:29:30;5.50;;;5.10;;
1991;SDS011;997;48.448;8.924;2023-01-29T13:31:57;5.90;;;5.40;;
1991;SDS011;997;48.448;8.924;2023-01-29T13:37:39;4.90;;;4.50;;
1991;SDS011;997;48.448;8.924;2023-01-29T13:40:21;5.70;;;5.20;;
1991;SDS011;997;48.448;8.924;2023-01-29T13:42:52;5.13;;;4.73;;
1991;SDS011;997;48.448;8.924;2023-01-29T13:45:24;11.80;;;9.30;;
1991;SDS011;997;48.448;8.924;2023-01-29T13:48:07;5.43;;;4.93;;
1991;SDS011;997;48.448;8.924;2023-01-29T13:50:35;7.43;;;6.87;;
1991;SDS011;997;48.448;8.924;2023-01-29T13:53:16;6.17;;;5.57;;
1991;SDS011;997;48.448;8.924;2023-01-29T13:55:47;6.60;;;6.00;;
1991;SDS011;997;48.448;8.924;2023-01-29T14:00:56;35.90;;;22.33;;
1991;SDS011;997;48.448;8.924;2023-01-29T14:13:40;8.73;;;8.03;;
1991;SDS011;997;48.448;8.924;2023-01-29T14:18:43;23.80;;;19.70;;
1991;SDS011;997;48.448;8.924;2023-01-29T14:21:35;26.73;;;22.37;;
1991;SDS011;997;48.448;8.924;2023-01-29T14:26:46;13.80;;;12.40;;
1991;SDS011;997;48.448;8.924;2023-01-29T14:29:28;15.57;;;13.97;;
1991;SDS011;997;48.448;8.924;2023-01-29T14:34:43;7.50;;;6.70;;
1991;SDS011;997;48.448;8.924;2023-01-29T14:39:52;10.50;;;9.00;;
1991;SDS011;997;48.448;8.924;2023-01-29T14:49:59;6.97;;;6.33;;
1991;SDS011;997;48.448;8.924;2023-01-29T14:52:29;10.23;;;9.53;;
1991;SDS011;997;48.448;8.924;2023-01-29T14:55:02;11.10;;;9.20;;
1991;SDS011;997;48.448;8.924;2023-01-29T14:57:32;16.30;;;14.60;;
1991;SDS011;997;48.448;8.924;2023-01-29T15:00:00;8.87;;;7.80;;
1991;SDS011;997;48.448;8.924;2023-01-29T15:05:12;13.80;;;12.57;;
1991;SDS011;997;48.448;8.924;2023-01-29T15:07:46;6.83;;;6.23;;
1991;SDS011;997;48.448;8.924;2023-01-29T15:10:26;9.13;;;8.33;;
1991;SDS011;997;48.448;8.924;2023-01-29T15:18:19;13.50;;;10.60;;
1991;SDS011;997;48.448;8.924;2023-01-29T15:21:02;9.60;;;6.53;;
1991;SDS011;997;48.448;8.924;2023-01-29T15:23:35;6.00;;;5.50;;
1991;SDS011;997;48.448;8.924;2023-01-29T15:26:03;6.90;;;6.20;;
1991;SDS011;997;48.448;8.924;2023-01-29T15:28:32;9.77;;;8.33;;
1991;SDS011;997;48.448;8.924;2023-01-29T15:31:00;8.20;;;7.40;;
1991;SDS011;997;48.448;8.924;2023-01-29T15:33:28;10.57;;;7.80;;
1991;SDS011;997;48.448;8.924;2023-01-29T15:35:56;8.27;;;7.03;;
1991;SDS011;997;48.448;8.924;2023-01-29T15:38:24;7.60;;;6.90;;
1991;SDS011;997;48.448;8.924;2023-01-29T15:40:58;9.23;;;7.93;;
1991;SDS011;997;48.448;8.924;2023-01-29T15:43:29;9.37;;;8.40;;
1991;SDS011;997;48.448;8.924;2023-01-29T15:46:33;8.20;;;6.83;;
1991;SDS011;997;48.448;8.924;2023-01-29T15:48:54;8.30;;;7.50;;
1991;SDS011;997;48.448;8.924;2023-01-29T15:51:24;7.60;;;6.70;;
1991;SDS011;997;48.448;8.924;2023-01-29T15:53:55;6.60;;;5.97;;
1991;SDS011;997;48.448;8.924;2023-01-29T15:56:33;9.93;;;8.93;;
1991;SDS011;997;48.448;8.924;2023-01-29T15:59:03;7.37;;;6.87;;
1991;SDS011;997;48.448;8.924;2023-01-29T16:01:30;12.70;;;11.53;;
1991;SDS011;997;48.448;8.924;2023-01-29T16:03:57;9.50;;;7.63;;
1991;SDS011;997;48.448;8.924;2023-01-29T16:06:26;11.00;;;10.07;;
1991;SDS011;997;48.448;8.924;2023-01-29T16:09:04;19.70;;;16.10;;
1991;SDS011;997;48.448;8.924;2023-01-29T16:11:30;15.53;;;13.87;;
1991;SDS011;997;48.448;8.924;2023-01-29T16:13:57;9.00;;;8.20;;
1991;SDS011;997;48.448;8.924;2023-01-29T16:16:24;15.53;;;13.90;;
1991;SDS011;997;48.448;8.924;2023-01-29T16:18:50;15.10;;;13.40;;
1991;SDS011;997;48.448;8.924;2023-01-29T16:21:20;25.83;;;21.83;;
1991;SDS011;997;48.448;8.924;2023-01-29T16:23:50;19.50;;;17.70;;
1991;SDS011;997;48.448;8.924;2023-01-29T16:26:26;22.00;;;18.50;;
1991;SDS011;997;48.448;8.924;2023-01-29T16:28:55;17.07;;;15.57;;
1991;SDS011;997;48.448;8.924;2023-01-29T16:31:27;11.00;;;9.87;;
1991;SDS011;997;48.448;8.924;2023-01-29T16:33:55;12.00;;;10.97;;
1991;SDS011;997;48.448;8.924;2023-01-29T16:36:23;10.17;;;9.17;;
1991;SDS011;997;48.448;8.924;2023-01-29T16:39:00;10.20;;;9.20;;
1991;SDS011;997;48.448;8.924;2023-01-29T16:46:48;10.90;;;9.37;;
1991;SDS011;997;48.448;8.924;2023-01-29T16:51:55;17.20;;;15.67;;
1991;SDS011;997;48.448;8.924;2023-01-29T16:54:40;16.40;;;14.90;;
1991;SDS011;997;48.448;8.924;2023-01-29T16:57:12;16.73;;;15.23;;
1991;SDS011;997;48.448;8.924;2023-01-29T16:59:49;13.40;;;12.20;;
1991;SDS011;997;48.448;8.924;2023-01-29T17:02:37;16.13;;;14.60;;
1991;SDS011;997;48.448;8.924;2023-01-29T17:05:05;12.90;;;11.53;;
1991;SDS011;997;48.448;8.924;2023-01-29T17:07:38;15.50;;;12.90;;
1991;SDS011;997;48.448;8.924;2023-01-29T17:10:14;16.37;;;15.07;;
1991;SDS011;997;48.448;8.924;2023-01-29T17:12:44;15.70;;;14.20;;
1991;SDS011;997;48.448;8.924;2023-01-29T17:16:13;13.53;;;12.17;;
1991;SDS011;997;48.448;8.924;2023-01-29T17:20:46;19.50;;;17.77;;
1991;SDS011;997;48.448;8.924;2023-01-29T17:23:12;21.87;;;19.87;;
1991;SDS011;997;48.448;8.924;2023-01-29T17:25:38;24.93;;;22.30;;
1991;SDS011;997;48.448;8.924;2023-01-29T17:28:05;18.30;;;16.53;;
1991;SDS011;997;48.448;8.924;2023-01-29T17:30:32;17.93;;;16.30;;
1991;SDS011;997;48.448;8.924;2023-01-29T17:33:01;22.63;;;20.43;;
1991;SDS011;997;48.448;8.924;2023-01-29T17:35:36;24.77;;;22.17;;
1991;SDS011;997;48.448;8.924;2023-01-29T17:38:02;23.00;;;20.80;;
1991;SDS011;997;48.448;8.924;2023-01-29T17:43:15;25.27;;;22.77;;
1991;SDS011;997;48.448;8.924;2023-01-29T17:45:41;17.13;;;15.57;;
1991;SDS011;997;48.448;8.924;2023-01-29T17:48:14;23.10;;;20.83;;
1991;SDS011;997;48.448;8.924;2023-01-29T17:50:51;30.20;;;27.00;;
1991;SDS011;997;48.448;8.924;2023-01-29T17:53:19;17.93;;;16.23;;
1991;SDS011;997;48.448;8.924;2023-01-29T17:55:46;21.73;;;19.60;;
1991;SDS011;997;48.448;8.924;2023-01-29T18:00:46;21.10;;;19.03;;
1991;SDS011;997;48.448;8.924;2023-01-29T18:03:12;18.43;;;16.63;;
1991;SDS011;997;48.448;8.924;2023-01-29T18:05:38;13.60;;;12.20;;
1991;SDS011;997;48.448;8.924;2023-01-29T18:08:20;13.70;;;12.40;;
1991;SDS011;997;48.448;8.924;2023-01-29T18:10:50;14.43;;;12.97;;
1991;SDS011;997;48.448;8.924;2023-01-29T18:13:16;34.87;;;25.57;;
1991;SDS011;997;48.448;8.924;2023-01-29T18:15:42;32.13;;;27.80;;
1991;SDS011;997;48.448;8.924;2023-01-29T18:18:09;20.13;;;18.27;;
1991;SDS011;997;48.448;8.924;2023-01-29T18:20:38;19.33;;;17.53;;
1991;SDS011;997;48.448;8.924;2023-01-29T18:23:04;21.80;;;19.70;;
1991;SDS011;997;48.448;8.924;2023-01-29T18:25:31;19.60;;;17.80;;
